sensor_id;sensor_type;location;lat;lon;timestamp;P1;durP1;ratioP1;P2;durP2;ratioP2
16101;SDS011;56411;52.964;10.540;2023-10-09T00:02:07;7.43;;;2.90;;
16101;SDS011;56411;52.964;10.540;2023-10-09T00:04:34;8.05;;;2.72;;
16101;SDS011;56411;52.964;10.540;2023-10-09T00:07:06;7.60;;;2.80;;
16101;SDS011;56411;52.964;10.540;2023-10-09T00:09:34;8.57;;;2.90;;
16101;SDS011;56411;52.964;10.540;2023-10-09T00:12:11;9.57;;;3.03;;
16101;SDS011;56411;52.964;10.540;2023-10-09T00:14:41;8.13;;;3.10;;
16101;SDS011;56411;52.964;10.540;2023-10-09T00:17:14;8.90;;;2.80;;
16101;SDS011;56411;52.964;10.540;2023-10-09T00:19:44;7.97;;;3.30;;
16101;SDS011;56411;52.964;10.540;2023-10-09T00:22:15;7.90;;;3.03;;
16101;SDS011;56411;52.964;10.540;2023-10-09T00:24:58;11.80;;;3.37;;
16101;SDS011;56411;52.964;10.540;2023-10-09T00:27:38;9.20;;;3.27;;
16101;SDS011;56411;52.964;10.540;2023-10-09T00:30:08;9.37;;;3.53;;
16101;SDS011;56411;52.964;10.540;2023-10-09T00:32:41;10.03;;;4.00;;
16101;SDS011;56411;52.964;10.540;2023-10-09T00:35:24;9.10;;;3.80;;
16101;SDS011;56411;52.964;10.540;2023-10-09T00:38:11;9.63;;;3.80;;
16101;SDS011;56411;52.964;10.540;2023-10-09T00:40:48;9.07;;;3.87;;
16101;SDS011;56411;52.964;10.540;2023-10-09T00:43:22;9.18;;;4.03;;
16101;SDS011;56411;52.964;10.540;2023-10-09T00:45:53;10.63;;;4.33;;
16101;SDS011;56411;52.964;10.540;2023-10-09T00:48:22;11.45;;;4.47;;
16101;SDS011;56411;52.964;10.540;2023-10-09T00:50:56;10.30;;;4.30;;
16101;SDS011;56411;52.964;10.540;2023-10-09T00:53:25;10.57;;;4.40;;
16101;SDS011;56411;52.964;10.540;2023-10-09T00:55:58;12.18;;;4.53;;
16101;SDS011;56411;52.964;10.540;2023-10-09T00:58:36;10.20;;;4.00;;
16101;SDS011;56411;52.964;10.540;2023-10-09T01:01:05;10.80;;;4.25;;
16101;SDS011;56411;52.964;10.540;2023-10-09T01:03:35;12.20;;;4.40;;
16101;SDS011;56411;52.964;10.540;2023-10-09T01:06:05;11.82;;;4.45;;
16101;SDS011;56411;52.964;10.540;2023-10-09T01:08:42;10.85;;;4.25;;
16101;SDS011;56411;52.964;10.540;2023-10-09T01:11:20;14.97;;;5.00;;
16101;SDS011;56411;52.964;10.540;2023-10-09T01:13:49;11.60;;;4.60;;
16101;SDS011;56411;52.964;10.540;2023-10-09T01:16:24;11.93;;;4.73;;
16101;SDS011;56411;52.964;10.540;2023-10-09T01:18:55;11.43;;;4.60;;
16101;SDS011;56411;52.964;10.540;2023-10-09T01:21:23;14.40;;;5.30;;
16101;SDS011;56411;52.964;10.540;2023-10-09T01:23:53;12.20;;;4.70;;
16101;SDS011;56411;52.964;10.540;2023-10-09T01:26:34;12.70;;;4.87;;
16101;SDS011;56411;52.964;10.540;2023-10-09T01:29:09;13.63;;;5.20;;
16101;SDS011;56411;52.964;10.540;2023-10-09T01:31:40;10.70;;;5.00;;
16101;SDS011;56411;52.964;10.540;2023-10-09T01:34:11;13.07;;;4.53;;
16101;SDS011;56411;52.964;10.540;2023-10-09T01:36:39;9.47;;;3.87;;
16101;SDS011;56411;52.964;10.540;2023-10-09T01:39:08;12.13;;;4.00;;
16101;SDS011;56411;52.964;10.540;2023-10-09T01:41:47;10.57;;;3.90;;
16101;SDS011;56411;52.964;10.540;2023-10-09T01:44:17;11.53;;;4.10;;
16101;SDS011;56411;52.964;10.540;2023-10-09T01:46:44;11.70;;;4.20;;
16101;SDS011;56411;52.964;10.540;2023-10-09T01:49:12;10.63;;;4.07;;
16101;SDS011;56411;52.964;10.540;2023-10-09T01:51:46;11.67;;;4.00;;
16101;SDS011;56411;52.964;10.540;2023-10-09T01:54:16;9.87;;;4.00;;
16101;SDS011;56411;52.964;10.540;2023-10-09T01:56:58;9.00;;;3.90;;
16101;SDS011;56411;52.964;10.540;2023-10-09T01:59:30;11.17;;;4.00;;
16101;SDS011;56411;52.964;10.540;2023-10-09T02:01:58;10.27;;;4.20;;
16101;SDS011;56411;52.964;10.540;2023-10-09T02:04:31;11.70;;;4.13;;
16101;SDS011;56411;52.964;10.540;2023-10-09T02:06:58;11.38;;;4.03;;
16101;SDS011;56411;52.964;10.540;2023-10-09T02:09:33;10.77;;;4.10;;
16101;SDS011;56411;52.964;10.540;2023-10-09T02:12:00;12.00;;;4.20;;
16101;SDS011;56411;52.964;10.540;2023-10-09T02:14:27;10.47;;;4.73;;
16101;SDS011;56411;52.964;10.540;2023-10-09T02:16:54;8.80;;;3.90;;
16101;SDS011;56411;52.964;10.540;2023-10-09T02:19:33;9.37;;;4.20;;
16101;SDS011;56411;52.964;10.540;2023-10-09T02:22:00;10.83;;;3.47;;
16101;SDS011;56411;52.964;10.540;2023-10-09T02:24:39;8.33;;;3.60;;
16101;SDS011;56411;52.964;10.540;2023-10-09T02:27:23;12.20;;;3.90;;
16101;SDS011;56411;52.964;10.540;2023-10-09T02:30:10;10.27;;;3.70;;
16101;SDS011;56411;52.964;10.540;2023-10-09T02:32:52;7.90;;;3.40;;
16101;SDS011;56411;52.964;10.540;2023-10-09T02:35:24;9.23;;;3.67;;
16101;SDS011;56411;52.964;10.540;2023-10-09T02:38:04;10.77;;;3.93;;
16101;SDS011;56411;52.964;10.540;2023-10-09T02:40:40;9.00;;;3.80;;
16101;SDS011;56411;52.964;10.540;2023-10-09T02:43:28;9.87;;;3.90;;
16101;SDS011;56411;52.964;10.540;2023-10-09T02:45:59;8.33;;;3.70;;
16101;SDS011;56411;52.964;10.540;2023-10-09T02:48:37;9.57;;;3.53;;
16101;SDS011;56411;52.964;10.540;2023-10-09T02:51:07;7.87;;;3.40;;
16101;SDS011;56411;52.964;10.540;2023-10-09T02:53:41;9.07;;;3.70;;
16101;SDS011;56411;52.964;10.540;2023-10-09T02:56:10;9.00;;;4.10;;
16101;SDS011;56411;52.964;10.540;2023-10-09T02:58:39;11.33;;;4.00;;
16101;SDS011;56411;52.964;10.540;2023-10-09T03:01:10;8.27;;;3.73;;
16101;SDS011;56411;52.964;10.540;2023-10-09T03:03:39;10.23;;;4.23;;
16101;SDS011;56411;52.964;10.540;2023-10-09T03:06:09;11.03;;;4.50;;
16101;SDS011;56411;52.964;10.540;2023-10-09T03:08:37;10.63;;;4.13;;
16101;SDS011;56411;52.964;10.540;2023-10-09T03:11:06;14.07;;;4.57;;
16101;SDS011;56411;52.964;10.540;2023-10-09T03:13:40;10.07;;;4.50;;
16101;SDS011;56411;52.964;10.540;2023-10-09T03:16:10;10.90;;;4.43;;
16101;SDS011;56411;52.964;10.540;2023-10-09T03:18:44;10.63;;;4.17;;
16101;SDS011;56411;52.964;10.540;2023-10-09T03:21:13;9.57;;;4.40;;
16101;SDS011;56411;52.964;10.540;2023-10-09T03:23:42;10.87;;;4.70;;
16101;SDS011;56411;52.964;10.540;2023-10-09T03:26:10;10.67;;;4.37;;
16101;SDS011;56411;52.964;10.540;2023-10-09T03:28:37;13.03;;;4.73;;
16101;SDS011;56411;52.964;10.540;2023-10-09T03:31:05;10.20;;;4.47;;
16101;SDS011;56411;52.964;10.540;2023-10-09T03:33:32;10.60;;;4.45;;
16101;SDS011;56411;52.964;10.540;2023-10-09T03:35:59;11.37;;;4.43;;
16101;SDS011;56411;52.964;10.540;2023-10-09T03:38:26;12.45;;;5.05;;
16101;SDS011;56411;52.964;10.540;2023-10-09T03:41:00;11.63;;;4.70;;
16101;SDS011;56411;52.964;10.540;2023-10-09T03:43:30;11.50;;;5.00;;
16101;SDS011;56411;52.964;10.540;2023-10-09T03:46:02;9.63;;;4.90;;
16101;SDS011;56411;52.964;10.540;2023-10-09T03:48:35;10.83;;;4.60;;
16101;SDS011;56411;52.964;10.540;2023-10-09T03:51:02;11.80;;;4.60;;
16101;SDS011;56411;52.964;10.540;2023-10-09T03:53:36;10.50;;;4.30;;
16101;SDS011;56411;52.964;10.540;2023-10-09T03:56:04;9.90;;;4.60;;
16101;SDS011;56411;52.964;10.540;2023-10-09T03:58:37;10.57;;;4.63;;
16101;SDS011;56411;52.964;10.540;2023-10-09T04:01:07;11.10;;;4.38;;
16101;SDS011;56411;52.964;10.540;2023-10-09T04:03:40;10.90;;;4.87;;
16101;SDS011;56411;52.964;10.540;2023-10-09T04:06:08;11.27;;;4.87;;
16101;SDS011;56411;52.964;10.540;2023-10-09T04:08:36;10.30;;;5.00;;
16101;SDS011;56411;52.964;10.540;2023-10-09T04:11:09;9.83;;;4.67;;
16101;SDS011;56411;52.964;10.540;2023-10-09T04:13:41;11.00;;;4.77;;
16101;SDS011;56411;52.964;10.540;2023-10-09T04:16:11;10.93;;;4.60;;
16101;SDS011;56411;52.964;10.540;2023-10-09T04:19:02;13.53;;;5.00;;
16101;SDS011;56411;52.964;10.540;2023-10-09T04:21:36;11.83;;;4.87;;
16101;SDS011;56411;52.964;10.540;2023-10-09T04:24:03;13.57;;;5.03;;
16101;SDS011;56411;52.964;10.540;2023-10-09T04:26:48;12.17;;;5.07;;
16101;SDS011;56411;52.964;10.540;2023-10-09T04:29:21;11.17;;;4.30;;
16101;SDS011;56411;52.964;10.540;2023-10-09T04:32:04;13.77;;;5.27;;
16101;SDS011;56411;52.964;10.540;2023-10-09T04:34:34;12.53;;;4.90;;
16101;SDS011;56411;52.964;10.540;2023-10-09T04:37:03;12.80;;;5.13;;
16101;SDS011;56411;52.964;10.540;2023-10-09T04:40:02;10.80;;;4.60;;
16101;SDS011;56411;52.964;10.540;2023-10-09T04:42:39;10.90;;;4.33;;
16101;SDS011;56411;52.964;10.540;2023-10-09T04:45:11;11.10;;;4.63;;
16101;SDS011;56411;52.964;10.540;2023-10-09T04:47:56;10.23;;;4.73;;
16101;SDS011;56411;52.964;10.540;2023-10-09T04:50:33;10.80;;;4.70;;
16101;SDS011;56411;52.964;10.540;2023-10-09T04:53:10;10.00;;;4.43;;
16101;SDS011;56411;52.964;10.540;2023-10-09T04:55:53;12.57;;;5.07;;
16101;SDS011;56411;52.964;10.540;2023-10-09T04:58:20;11.43;;;4.97;;
16101;SDS011;56411;52.964;10.540;2023-10-09T05:00:50;12.17;;;4.77;;
16101;SDS011;56411;52.964;10.540;2023-10-09T05:03:35;11.47;;;5.40;;
16101;SDS011;56411;52.964;10.540;2023-10-09T05:06:18;13.80;;;4.87;;
16101;SDS011;56411;52.964;10.540;2023-10-09T05:09:08;12.37;;;5.47;;
16101;SDS011;56411;52.964;10.540;2023-10-09T05:11:38;13.63;;;5.40;;
16101;SDS011;56411;52.964;10.540;2023-10-09T05:14:34;11.80;;;5.30;;
16101;SDS011;56411;52.964;10.540;2023-10-09T05:17:24;12.27;;;5.80;;
16101;SDS011;56411;52.964;10.540;2023-10-09T05:19:51;11.97;;;5.70;;
16101;SDS011;56411;52.964;10.540;2023-10-09T05:22:27;11.77;;;5.73;;
16101;SDS011;56411;52.964;10.540;2023-10-09T05:25:03;13.43;;;5.70;;
16101;SDS011;56411;52.964;10.540;2023-10-09T05:27:41;14.13;;;5.43;;
16101;SDS011;56411;52.964;10.540;2023-10-09T05:30:11;13.37;;;5.90;;
16101;SDS011;56411;52.964;10.540;2023-10-09T05:32:58;14.80;;;6.10;;
16101;SDS011;56411;52.964;10.540;2023-10-09T05:35:45;12.50;;;6.13;;
16101;SDS011;56411;52.964;10.540;2023-10-09T05:38:31;12.23;;;6.00;;
16101;SDS011;56411;52.964;10.540;2023-10-09T05:41:01;11.83;;;6.47;;
16101;SDS011;56411;52.964;10.540;2023-10-09T05:43:50;14.60;;;6.53;;
16101;SDS011;56411;52.964;10.540;2023-10-09T05:46:34;14.27;;;6.77;;
16101;SDS011;56411;52.964;10.540;2023-10-09T05:49:02;14.57;;;5.80;;
16101;SDS011;56411;52.964;10.540;2023-10-09T05:51:34;12.10;;;5.97;;
16101;SDS011;56411;52.964;10.540;2023-10-09T05:54:09;12.83;;;5.60;;
16101;SDS011;56411;52.964;10.540;2023-10-09T05:56:54;13.93;;;5.57;;
16101;SDS011;56411;52.964;10.540;2023-10-09T05:59:56;14.50;;;5.97;;
16101;SDS011;56411;52.964;10.540;2023-10-09T06:02:40;13.00;;;5.97;;
16101;SDS011;56411;52.964;10.540;2023-10-09T06:05:24;13.50;;;6.57;;
16101;SDS011;56411;52.964;10.540;2023-10-09T06:08:07;14.23;;;6.27;;
16101;SDS011;56411;52.964;10.540;2023-10-09T06:10:39;14.73;;;6.83;;
16101;SDS011;56411;52.964;10.540;2023-10-09T06:13:07;14.57;;;6.97;;
16101;SDS011;56411;52.964;10.540;2023-10-09T06:15:55;13.20;;;6.40;;
16101;SDS011;56411;52.964;10.540;2023-10-09T06:18:45;14.03;;;7.03;;
16101;SDS011;56411;52.964;10.540;2023-10-09T06:21:32;12.37;;;6.87;;
16101;SDS011;56411;52.964;10.540;2023-10-09T06:24:05;13.17;;;6.87;;
16101;SDS011;56411;52.964;10.540;2023-10-09T06:26:43;16.67;;;7.10;;
16101;SDS011;56411;52.964;10.540;2023-10-09T06:29:29;14.20;;;8.23;;
16101;SDS011;56411;52.964;10.540;2023-10-09T06:32:03;17.97;;;9.00;;
16101;SDS011;56411;52.964;10.540;2023-10-09T06:34:45;14.07;;;8.40;;
16101;SDS011;56411;52.964;10.540;2023-10-09T06:37:17;16.20;;;9.57;;
16101;SDS011;56411;52.964;10.540;2023-10-09T06:39:59;14.67;;;7.73;;
16101;SDS011;56411;52.964;10.540;2023-10-09T06:42:58;14.57;;;7.80;;
16101;SDS011;56411;52.964;10.540;2023-10-09T06:45:34;14.25;;;8.10;;
16101;SDS011;56411;52.964;10.540;2023-10-09T06:48:09;14.97;;;8.40;;
16101;SDS011;56411;52.964;10.540;2023-10-09T06:50:51;15.53;;;8.90;;
16101;SDS011;56411;52.964;10.540;2023-10-09T06:53:29;15.83;;;8.60;;
16101;SDS011;56411;52.964;10.540;2023-10-09T06:56:10;16.30;;;9.33;;
16101;SDS011;56411;52.964;10.540;2023-10-09T06:58:49;15.70;;;8.27;;
16101;SDS011;56411;52.964;10.540;2023-10-09T07:01:19;17.90;;;8.93;;
16101;SDS011;56411;52.964;10.540;2023-10-09T07:03:54;15.53;;;8.63;;
16101;SDS011;56411;52.964;10.540;2023-10-09T07:06:25;14.57;;;8.70;;
16101;SDS011;56411;52.964;10.540;2023-10-09T07:09:06;14.73;;;8.67;;
16101;SDS011;56411;52.964;10.540;2023-10-09T07:11:45;13.53;;;8.00;;
16101;SDS011;56411;52.964;10.540;2023-10-09T07:14:30;16.43;;;9.00;;
16101;SDS011;56411;52.964;10.540;2023-10-09T07:17:15;17.07;;;8.70;;
16101;SDS011;56411;52.964;10.540;2023-10-09T07:19:47;16.47;;;8.90;;
16101;SDS011;56411;52.964;10.540;2023-10-09T07:22:40;15.20;;;8.90;;
16101;SDS011;56411;52.964;10.540;2023-10-09T07:25:22;15.17;;;8.70;;
16101;SDS011;56411;52.964;10.540;2023-10-09T07:28:09;14.77;;;8.50;;
16101;SDS011;56411;52.964;10.540;2023-10-09T07:31:02;14.73;;;8.47;;
16101;SDS011;56411;52.964;10.540;2023-10-09T07:33:34;15.43;;;8.20;;
16101;SDS011;56411;52.964;10.540;2023-10-09T07:36:14;15.03;;;8.20;;
16101;SDS011;56411;52.964;10.540;2023-10-09T07:38:41;14.97;;;8.30;;
16101;SDS011;56411;52.964;10.540;2023-10-09T07:41:10;16.90;;;8.33;;
16101;SDS011;56411;52.964;10.540;2023-10-09T07:43:54;16.13;;;8.07;;
16101;SDS011;56411;52.964;10.540;2023-10-09T07:46:24;13.33;;;7.57;;
16101;SDS011;56411;52.964;10.540;2023-10-09T07:48:58;14.55;;;8.18;;
16101;SDS011;56411;52.964;10.540;2023-10-09T07:51:25;15.50;;;8.43;;
16101;SDS011;56411;52.964;10.540;2023-10-09T07:53:57;13.90;;;8.10;;
16101;SDS011;56411;52.964;10.540;2023-10-09T07:56:32;15.27;;;8.10;;
16101;SDS011;56411;52.964;10.540;2023-10-09T07:59:03;13.80;;;8.13;;
16101;SDS011;56411;52.964;10.540;2023-10-09T08:01:37;13.60;;;8.23;;
16101;SDS011;56411;52.964;10.540;2023-10-09T08:04:04;15.07;;;8.10;;
16101;SDS011;56411;52.964;10.540;2023-10-09T08:06:36;13.60;;;8.27;;
16101;SDS011;56411;52.964;10.540;2023-10-09T08:09:08;13.70;;;8.17;;
16101;SDS011;56411;52.964;10.540;2023-10-09T08:12:04;13.60;;;7.50;;
16101;SDS011;56411;52.964;10.540;2023-10-09T08:15:00;13.50;;;7.47;;
16101;SDS011;56411;52.964;10.540;2023-10-09T08:17:47;13.83;;;7.03;;
16101;SDS011;56411;52.964;10.540;2023-10-09T08:20:16;12.57;;;7.10;;
16101;SDS011;56411;52.964;10.540;2023-10-09T08:22:50;13.80;;;7.23;;
16101;SDS011;56411;52.964;10.540;2023-10-09T08:25:18;12.87;;;7.27;;
16101;SDS011;56411;52.964;10.540;2023-10-09T08:27:57;12.63;;;7.20;;
16101;SDS011;56411;52.964;10.540;2023-10-09T08:30:44;11.83;;;6.90;;
16101;SDS011;56411;52.964;10.540;2023-10-09T08:33:30;12.07;;;6.63;;
16101;SDS011;56411;52.964;10.540;2023-10-09T08:36:06;11.50;;;6.43;;
16101;SDS011;56411;52.964;10.540;2023-10-09T08:38:34;12.60;;;7.10;;
16101;SDS011;56411;52.964;10.540;2023-10-09T08:41:08;11.70;;;7.17;;
16101;SDS011;56411;52.964;10.540;2023-10-09T08:43:47;11.82;;;6.57;;
16101;SDS011;56411;52.964;10.540;2023-10-09T08:46:21;12.23;;;6.60;;
16101;SDS011;56411;52.964;10.540;2023-10-09T08:48:53;11.13;;;6.10;;
16101;SDS011;56411;52.964;10.540;2023-10-09T08:51:21;11.40;;;6.00;;
16101;SDS011;56411;52.964;10.540;2023-10-09T08:53:50;10.90;;;6.43;;
16101;SDS011;56411;52.964;10.540;2023-10-09T08:56:18;10.13;;;5.60;;
16101;SDS011;56411;52.964;10.540;2023-10-09T08:58:49;11.97;;;6.23;;
16101;SDS011;56411;52.964;10.540;2023-10-09T09:01:17;11.10;;;5.97;;
16101;SDS011;56411;52.964;10.540;2023-10-09T09:03:46;10.30;;;5.67;;
16101;SDS011;56411;52.964;10.540;2023-10-09T09:06:17;12.07;;;5.70;;
16101;SDS011;56411;52.964;10.540;2023-10-09T09:08:45;10.57;;;5.57;;
16101;SDS011;56411;52.964;10.540;2023-10-09T09:11:13;11.20;;;5.90;;
16101;SDS011;56411;52.964;10.540;2023-10-09T09:13:42;10.13;;;5.07;;
16101;SDS011;56411;52.964;10.540;2023-10-09T09:16:17;9.87;;;5.30;;
16101;SDS011;56411;52.964;10.540;2023-10-09T09:18:51;10.70;;;5.77;;
16101;SDS011;56411;52.964;10.540;2023-10-09T09:21:27;10.60;;;5.50;;
16101;SDS011;56411;52.964;10.540;2023-10-09T09:23:55;10.60;;;5.33;;
16101;SDS011;56411;52.964;10.540;2023-10-09T09:29:12;9.20;;;4.82;;
16101;SDS011;56411;52.964;10.540;2023-10-09T09:31:52;10.63;;;5.00;;
16101;SDS011;56411;52.964;10.540;2023-10-09T09:34:20;9.50;;;5.07;;
16101;SDS011;56411;52.964;10.540;2023-10-09T09:36:53;9.67;;;4.93;;
16101;SDS011;56411;52.964;10.540;2023-10-09T09:39:21;9.45;;;4.95;;
16101;SDS011;56411;52.964;10.540;2023-10-09T09:41:56;9.10;;;4.70;;
16101;SDS011;56411;52.964;10.540;2023-10-09T09:44:32;8.43;;;4.57;;
16101;SDS011;56411;52.964;10.540;2023-10-09T09:47:08;9.50;;;4.33;;
16101;SDS011;56411;52.964;10.540;2023-10-09T09:49:40;7.13;;;4.00;;
16101;SDS011;56411;52.964;10.540;2023-10-09T09:52:09;8.75;;;4.50;;
16101;SDS011;56411;52.964;10.540;2023-10-09T09:54:37;8.10;;;4.22;;
16101;SDS011;56411;52.964;10.540;2023-10-09T09:57:06;8.70;;;4.32;;
16101;SDS011;56411;52.964;10.540;2023-10-09T09:59:37;8.68;;;4.20;;
16101;SDS011;56411;52.964;10.540;2023-10-09T10:02:18;8.63;;;4.10;;
16101;SDS011;56411;52.964;10.540;2023-10-09T10:04:53;8.32;;;4.43;;
16101;SDS011;56411;52.964;10.540;2023-10-09T10:07:24;8.77;;;4.65;;
16101;SDS011;56411;52.964;10.540;2023-10-09T10:09:55;8.73;;;4.57;;
16101;SDS011;56411;52.964;10.540;2023-10-09T10:15:36;12.32;;;6.80;;
16101;SDS011;56411;52.964;10.540;2023-10-09T10:18:29;8.07;;;4.30;;
16101;SDS011;56411;52.964;10.540;2023-10-09T10:21:11;6.72;;;3.60;;
16101;SDS011;56411;52.964;10.540;2023-10-09T10:23:44;6.03;;;3.35;;
16101;SDS011;56411;52.964;10.540;2023-10-09T10:26:17;6.57;;;3.70;;
16101;SDS011;56411;52.964;10.540;2023-10-09T10:31:55;6.05;;;3.55;;
16101;SDS011;56411;52.964;10.540;2023-10-09T10:34:25;6.68;;;3.53;;
16101;SDS011;56411;52.964;10.540;2023-10-09T10:36:53;5.85;;;3.47;;
16101;SDS011;56411;52.964;10.540;2023-10-09T10:39:26;6.60;;;3.60;;
16101;SDS011;56411;52.964;10.540;2023-10-09T10:42:07;6.70;;;3.58;;
16101;SDS011;56411;52.964;10.540;2023-10-09T10:44:40;6.22;;;3.60;;
16101;SDS011;56411;52.964;10.540;2023-10-09T10:47:12;5.60;;;3.05;;
16101;SDS011;56411;52.964;10.540;2023-10-09T10:49:50;6.47;;;3.38;;
16101;SDS011;56411;52.964;10.540;2023-10-09T10:52:23;7.40;;;3.47;;
16101;SDS011;56411;52.964;10.540;2023-10-09T10:55:08;6.07;;;3.20;;
16101;SDS011;56411;52.964;10.540;2023-10-09T10:57:59;7.70;;;3.58;;
16101;SDS011;56411;52.964;10.540;2023-10-09T11:00:35;7.78;;;4.20;;
16101;SDS011;56411;52.964;10.540;2023-10-09T11:03:20;7.25;;;4.15;;
16101;SDS011;56411;52.964;10.540;2023-10-09T11:05:54;6.75;;;3.78;;
16101;SDS011;56411;52.964;10.540;2023-10-09T11:08:23;7.03;;;3.97;;
16101;SDS011;56411;52.964;10.540;2023-10-09T11:11:11;8.65;;;4.22;;
16101;SDS011;56411;52.964;10.540;2023-10-09T11:13:41;8.70;;;4.55;;
16101;SDS011;56411;52.964;10.540;2023-10-09T11:16:22;8.63;;;4.47;;
16101;SDS011;56411;52.964;10.540;2023-10-09T11:19:07;8.07;;;4.20;;
16101;SDS011;56411;52.964;10.540;2023-10-09T11:21:50;8.20;;;4.22;;
16101;SDS011;56411;52.964;10.540;2023-10-09T11:24:25;8.30;;;4.40;;
16101;SDS011;56411;52.964;10.540;2023-10-09T11:26:54;7.72;;;3.90;;
16101;SDS011;56411;52.964;10.540;2023-10-09T11:29:22;8.50;;;4.05;;
16101;SDS011;56411;52.964;10.540;2023-10-09T11:31:57;7.10;;;3.90;;
16101;SDS011;56411;52.964;10.540;2023-10-09T11:34:29;6.10;;;3.30;;
16101;SDS011;56411;52.964;10.540;2023-10-09T11:36:57;6.10;;;3.47;;
16101;SDS011;56411;52.964;10.540;2023-10-09T11:39:25;5.35;;;3.08;;
16101;SDS011;56411;52.964;10.540;2023-10-09T11:42:17;4.50;;;2.90;;
16101;SDS011;56411;52.964;10.540;2023-10-09T11:45:01;4.90;;;2.80;;
16101;SDS011;56411;52.964;10.540;2023-10-09T11:47:36;4.65;;;2.83;;
16101;SDS011;56411;52.964;10.540;2023-10-09T11:50:19;5.88;;;3.05;;
16101;SDS011;56411;52.964;10.540;2023-10-09T11:52:54;5.47;;;3.00;;
16101;SDS011;56411;52.964;10.540;2023-10-09T11:55:33;4.40;;;2.80;;
16101;SDS011;56411;52.964;10.540;2023-10-09T11:58:02;3.17;;;2.30;;
16101;SDS011;56411;52.964;10.540;2023-10-09T12:00:30;3.50;;;2.40;;
16101;SDS011;56411;52.964;10.540;2023-10-09T12:03:07;2.92;;;2.20;;
16101;SDS011;56411;52.964;10.540;2023-10-09T12:05:35;4.15;;;2.50;;
16101;SDS011;56411;52.964;10.540;2023-10-09T12:08:02;4.53;;;2.70;;
16101;SDS011;56411;52.964;10.540;2023-10-09T12:10:33;2.75;;;2.15;;
16101;SDS011;56411;52.964;10.540;2023-10-09T12:13:05;4.22;;;2.60;;
16101;SDS011;56411;52.964;10.540;2023-10-09T12:15:32;4.18;;;2.30;;
16101;SDS011;56411;52.964;10.540;2023-10-09T12:18:04;4.35;;;2.60;;
16101;SDS011;56411;52.964;10.540;2023-10-09T12:20:34;5.72;;;3.70;;
16101;SDS011;56411;52.964;10.540;2023-10-09T12:23:02;3.10;;;2.25;;
16101;SDS011;56411;52.964;10.540;2023-10-09T12:25:30;2.83;;;2.10;;
16101;SDS011;56411;52.964;10.540;2023-10-09T12:27:58;4.47;;;2.22;;
16101;SDS011;56411;52.964;10.540;2023-10-09T12:30:27;2.42;;;2.10;;
16101;SDS011;56411;52.964;10.540;2023-10-09T12:32:55;4.75;;;2.45;;
16101;SDS011;56411;52.964;10.540;2023-10-09T12:35:23;3.83;;;2.22;;
16101;SDS011;56411;52.964;10.540;2023-10-09T12:37:51;4.00;;;2.30;;
16101;SDS011;56411;52.964;10.540;2023-10-09T12:40:20;4.60;;;2.53;;
16101;SDS011;56411;52.964;10.540;2023-10-09T12:42:54;4.75;;;2.53;;
16101;SDS011;56411;52.964;10.540;2023-10-09T12:45:24;2.65;;;2.20;;
16101;SDS011;56411;52.964;10.540;2023-10-09T12:47:54;5.20;;;2.70;;
16101;SDS011;56411;52.964;10.540;2023-10-09T12:50:24;4.95;;;3.15;;
16101;SDS011;56411;52.964;10.540;2023-10-09T12:52:55;4.43;;;2.60;;
16101;SDS011;56411;52.964;10.540;2023-10-09T12:55:23;3.40;;;2.65;;
16101;SDS011;56411;52.964;10.540;2023-10-09T12:57:57;3.60;;;2.53;;
16101;SDS011;56411;52.964;10.540;2023-10-09T13:00:31;3.97;;;2.80;;
16101;SDS011;56411;52.964;10.540;2023-10-09T13:03:03;5.30;;;2.97;;
16101;SDS011;56411;52.964;10.540;2023-10-09T13:05:42;6.00;;;3.20;;
16101;SDS011;56411;52.964;10.540;2023-10-09T13:08:20;5.60;;;3.13;;
16101;SDS011;56411;52.964;10.540;2023-10-09T13:10:49;5.18;;;2.83;;
16101;SDS011;56411;52.964;10.540;2023-10-09T13:13:24;4.45;;;2.92;;
16101;SDS011;56411;52.964;10.540;2023-10-09T13:16:04;4.57;;;3.10;;
16101;SDS011;56411;52.964;10.540;2023-10-09T13:18:40;4.82;;;2.90;;
16101;SDS011;56411;52.964;10.540;2023-10-09T13:21:14;7.10;;;3.97;;
16101;SDS011;56411;52.964;10.540;2023-10-09T13:23:42;5.40;;;3.13;;
16101;SDS011;56411;52.964;10.540;2023-10-09T13:26:14;5.05;;;3.03;;
16101;SDS011;56411;52.964;10.540;2023-10-09T13:28:47;6.13;;;3.08;;
16101;SDS011;56411;52.964;10.540;2023-10-09T13:31:15;6.15;;;3.40;;
16101;SDS011;56411;52.964;10.540;2023-10-09T13:33:44;6.47;;;3.47;;
16101;SDS011;56411;52.964;10.540;2023-10-09T13:36:12;6.10;;;3.50;;
16101;SDS011;56411;52.964;10.540;2023-10-09T13:38:44;5.45;;;3.63;;
16101;SDS011;56411;52.964;10.540;2023-10-09T13:41:12;5.57;;;3.17;;
16101;SDS011;56411;52.964;10.540;2023-10-09T13:43:42;7.00;;;3.45;;
16101;SDS011;56411;52.964;10.540;2023-10-09T13:46:10;5.97;;;3.35;;
16101;SDS011;56411;52.964;10.540;2023-10-09T13:48:39;7.03;;;3.83;;
16101;SDS011;56411;52.964;10.540;2023-10-09T13:51:09;8.35;;;4.25;;
16101;SDS011;56411;52.964;10.540;2023-10-09T13:53:42;8.50;;;4.60;;
16101;SDS011;56411;52.964;10.540;2023-10-09T13:56:13;8.43;;;4.63;;
16101;SDS011;56411;52.964;10.540;2023-10-09T13:58:44;7.45;;;4.10;;
16101;SDS011;56411;52.964;10.540;2023-10-09T14:01:15;6.88;;;3.75;;
16101;SDS011;56411;52.964;10.540;2023-10-09T14:03:52;9.23;;;3.90;;
16101;SDS011;56411;52.964;10.540;2023-10-09T14:06:21;6.93;;;3.83;;
16101;SDS011;56411;52.964;10.540;2023-10-09T14:08:55;7.68;;;4.05;;
16101;SDS011;56411;52.964;10.540;2023-10-09T14:11:23;6.20;;;3.58;;
16101;SDS011;56411;52.964;10.540;2023-10-09T14:13:51;7.72;;;3.58;;
16101;SDS011;56411;52.964;10.540;2023-10-09T14:16:18;5.72;;;3.42;;
16101;SDS011;56411;52.964;10.540;2023-10-09T14:18:52;8.13;;;3.97;;
16101;SDS011;56411;52.964;10.540;2023-10-09T14:21:23;6.55;;;3.67;;
16101;SDS011;56411;52.964;10.540;2023-10-09T14:23:53;9.20;;;4.13;;
16101;SDS011;56411;52.964;10.540;2023-10-09T14:26:24;8.27;;;3.95;;
16101;SDS011;56411;52.964;10.540;2023-10-09T14:28:51;7.60;;;3.75;;
16101;SDS011;56411;52.964;10.540;2023-10-09T14:31:21;7.85;;;4.00;;
16101;SDS011;56411;52.964;10.540;2023-10-09T14:33:53;7.38;;;3.90;;
16101;SDS011;56411;52.964;10.540;2023-10-09T14:36:20;6.88;;;3.90;;
16101;SDS011;56411;52.964;10.540;2023-10-09T14:38:50;8.63;;;4.15;;
16101;SDS011;56411;52.964;10.540;2023-10-09T14:41:19;8.13;;;3.83;;
16101;SDS011;56411;52.964;10.540;2023-10-09T14:43:48;7.05;;;4.20;;
16101;SDS011;56411;52.964;10.540;2023-10-09T14:46:16;7.65;;;4.20;;
16101;SDS011;56411;52.964;10.540;2023-10-09T14:48:48;7.40;;;4.03;;
16101;SDS011;56411;52.964;10.540;2023-10-09T14:51:18;8.50;;;4.40;;
16101;SDS011;56411;52.964;10.540;2023-10-09T14:53:53;7.55;;;4.30;;
16101;SDS011;56411;52.964;10.540;2023-10-09T14:56:23;9.00;;;4.75;;
16101;SDS011;56411;52.964;10.540;2023-10-09T14:58:54;9.50;;;5.25;;
16101;SDS011;56411;52.964;10.540;2023-10-09T15:01:23;9.32;;;5.10;;
16101;SDS011;56411;52.964;10.540;2023-10-09T15:03:54;9.75;;;5.20;;
16101;SDS011;56411;52.964;10.540;2023-10-09T15:06:22;11.85;;;6.75;;
16101;SDS011;56411;52.964;10.540;2023-10-09T15:08:54;12.07;;;7.32;;
16101;SDS011;56411;52.964;10.540;2023-10-09T15:11:22;10.55;;;6.18;;
16101;SDS011;56411;52.964;10.540;2023-10-09T15:13:49;9.20;;;5.25;;
16101;SDS011;56411;52.964;10.540;2023-10-09T15:16:18;9.27;;;5.28;;
16101;SDS011;56411;52.964;10.540;2023-10-09T15:18:46;9.43;;;5.05;;